GMT,Max TemperatureF,Mean TemperatureF,Min TemperatureF,Max Dew PointF,MeanDew PointF,Min DewpointF,Max Humidity, Mean Humidity, Min Humidity, Max Sea Level PressureIn, Mean Sea Level PressureIn, Min Sea Level PressureIn, Max VisibilityMiles, Mean VisibilityMiles, Min VisibilityMiles, Max Wind SpeedMPH, Mean Wind SpeedMPH, Max Gust SpeedMPH,PrecipitationIn, CloudCover, Events, WindDirDegrees
2012-12-1,41,34,26,37,32,27,100,91,81,30.01,29.94,29.89,6,5,1,13,4,,0.00,3,Rain,299
2012-12-2,41,32,23,36,31,23,100,92,81,30.01,29.97,29.86,6,6,3,8,4,,0.00,4,Rain,232
2012-12-3,46,40,35,45,38,34,100,87,66,29.83,29.68,29.59,6,5,2,16,7,25,0.00,4,Rain,257
2012-12-4,44,38,33,36,34,32,100,86,66,29.62,29.59,29.56,6,6,6,14,6,,0.00,2,Rain,272
2012-12-5,37,32,26,36,30,25,100,89,75,30.01,29.80,29.59,6,5,1,16,7,,0.00,4,Rain,324
2012-12-6,39,31,23,39,30,21,100,89,81,30.04,29.81,29.39,6,6,4,17,6,30,0.00,4,Rain,214
2012-12-7,42,38,35,36,35,32,93,84,70,30.04,29.63,29.39,6,6,6,21,13,33,0.00,4,Rain-Snow,315
2012-12-8,42,36,30,39,35,30,100,86,76,30.27,30.21,30.04,6,6,6,9,6,,0.00,4,,288
2012-12-9,46,42,37,43,39,34,93,82,71,30.18,30.06,30.01,6,6,6,20,10,31,0.00,5,Rain,293
2012-12-10,41,34,26,34,31,25,100,87,75,30.39,30.23,30.06,6,6,6,13,9,23,0.00,2,,325
2012-12-11,32,28,23,32,28,23,100,100,93,30.45,30.39,30.30,5,2,0,5,3,,0.00,7,Fog,272
2012-12-12,30,26,23,30,27,23,100,100,93,30.30,30.08,29.86,5,2,0,5,3,,0.00,7,Fog,156
2012-12-13,30,24,19,28,25,19,100,95,86,29.86,29.67,29.50,6,4,2,8,2,,0.00,6,Fog,106
2012-12-14,46,38,30,46,39,28,100,96,81,29.47,29.00,28.68,6,4,0,20,11,26,0.00,5,Fog-Rain,153
2012-12-15,48,44,39,45,42,39,100,91,81,29.39,29.18,28.97,6,6,6,12,9,,0.00,3,Rain,209
2012-12-16,46,42,39,43,40,37,100,94,87,29.50,29.44,29.39,6,6,4,10,6,,0.00,3,Rain,191
2012-12-17,46,42,37,41,40,36,100,89,76,29.62,29.50,29.39,6,6,5,12,6,,0.00,3,Rain,225
2012-12-18,44,38,33,41,40,34,100,93,87,30.09,29.96,29.68,6,5,2,13,7,,0.00,5,Rain,308
2012-12-19,42,40,37,41,39,37,100,95,87,30.09,29.95,29.77,6,4,2,17,10,,0.00,5,Rain,127
2012-12-20,46,44,42,46,43,41,100,96,93,29.74,29.52,29.42,6,5,1,16,13,,0.00,6,Rain,123
2012-12-21,48,45,42,45,42,39,100,90,76,29.89,29.77,29.56,6,6,4,10,5,,0.00,4,Rain,249
2012-12-22,53,48,42,52,47,43,100,95,93,29.86,29.57,29.44,6,5,2,17,9,,0.00,5,Rain,184
2012-12-23,55,48,41,52,44,39,94,81,71,29.68,29.55,29.39,6,6,6,16,10,33,0.00,3,Rain,242
2012-12-24,44,42,41,45,43,39,100,96,93,29.68,29.42,29.27,6,5,3,10,5,,0.00,5,Rain,175
2012-12-25,46,42,39,43,41,37,100,92,81,29.56,29.33,29.21,6,6,6,13,7,,0.00,3,Rain,222
2012-12-26,48,44,39,45,40,37,93,88,81,29.65,29.54,29.39,6,6,4,14,8,25,0.00,3,Rain,224
2012-12-27,44,42,39,41,39,37,100,89,81,30.09,29.67,29.39,6,6,3,14,7,,0.00,5,Rain,258
2012-12-28,51,44,37,50,45,37,100,92,82,30.09,29.87,29.68,6,6,4,17,10,32,0.00,6,Rain,195
2012-12-29,53,46,39,48,44,37,94,90,82,29.68,29.49,29.39,6,6,2,22,14,40,0.00,5,Rain,215
2012-12-30,50,44,37,45,39,34,87,82,76,29.77,29.69,29.56,6,6,5,15,10,26,0.00,3,Rain,232
2012-12-31,50,47,44,48,46,41,94,89,82,29.68,29.48,29.36,6,6,5,18,13,34,0.00,5,Rain,224